Terminal Aerodrome Forecast
Issued by NWS

Home | Current Version | Previous Version | Text Only | Print | Product List | Glossary On
Versions: 1 2 3 4 5 6 7 8 9 10 11 12 13 14 15 16 17 18 19 20
000
FTUS46 KLOX 041730
TAFSBA
TAF
KSBA 041730Z 0418/0518 16008KT P6SM SCT015
     FM042100 26010KT P6SM SKC
     FM050300 VRB03KT P6SM SKC
     FM050500 VRB03KT P6SM OVC006
     FM051500 13006KT P6SM OVC010=

USA.gov is the U.S. government's official web portal to all federal, state and local government web resources and services.